Portada
METAR-TAF:

METAR-TAF

Aeroports :

Niigata, Japó

latitud: 37-57N, longitud: 139-07E, altitud: 1 m

Observació

L'informe es va fer fa 21 minuts, a les 06:00 UTC
Vent 5 kt del Nord-Oest
Temperatura 18°C
Humitat 64%
Pressió 1019 hPa
Visibilitat 10 km o més
Escasses núvols a una alçada de 3000 ft
Cel ennuvolat

METAR: RJSN 270600Z 32005KT 9999 FEW030 BKN/// 18/11 Q1019

Hora: 15:21 (06:21 UTC)

Pronòstic

L'informe es va fer fa 1 hora i 16 minuts, a les 05:05 UTC
Pronòstic vàlid del 27 a les 06 UTC al 28 a les 12 UTC
Vent 6 kt del Nord
Visibilitat 10 km o més
Escasses núvols a una alçada de 3000 ft
Evolucionant progressivament
l' 27 a les 06 UTC al 27 a les 08 UTC
Vent 6 kt del Sud/Sud-Est
Evolucionant progressivament
l' 28 a les 00 UTC al 28 a les 03 UTC
Vent 8 kt del Sud-Oest

TAF: RJSN 270505Z 2706/2812 35006KT 9999 FEW030 BECMG 2706/2708 16006KT BECMG 2800/2803 23008KT

Observacions i pronòstics meteorològics de més de 4000 aeroports (METAR i TAF).

Les estacions disponibles són els punts grocs i vermells al mapa.

Posi el ratolí al punt desitjat per veure el nom de l'estació.

Feu clic per veure les observacions i els pronòstics meteorològics.

Per canviar el mapa: feu clic els botons verds amb una creu de color negre per apropar; al botó verd amb un guió per allunyar la imatge; o en les fletxes verdes per a mapes adjacents.


METAR-TAF: